Time;durP1;ratioP1;P1;durP2;ratioP2;P2;SDS_P1;SDS_P2;PMS_P1;PMS_P2;Temp;Humidity;BMP_temperature;BMP_pressure;BME280_temperature;BME280_humidity;BME280_pressure;Samples;Min_cycle;Max_cycle;Signal;HPM_P1;HPM_P2
2022/09/26 00:01:16;;;;;;;14.17;8.30;;;;;;;12.41;100.00;99913.06;1451145;90;21430;-78
2022/09/26 00:03:45;;;;;;;10.75;8.28;;;;;;;12.36;100.00;99910.91;1454214;89;21414;-78
2022/09/26 00:06:11;;;;;;;19.00;8.43;;;;;;;12.37;100.00;99905.10;1445549;90;22588;-79
2022/09/26 00:08:39;;;;;;;12.17;8.07;;;;;;;12.39;100.00;99907.09;1448998;90;21451;-79
2022/09/26 00:11:08;;;;;;;10.97;8.37;;;;;;;12.42;100.00;99914.70;1450908;89;21481;-79
2022/09/26 00:13:38;;;;;;;11.30;8.20;;;;;;;12.46;100.00;99912.05;1443222;89;21852;-79
2022/09/26 00:16:05;;;;;;;17.00;7.83;;;;;;;12.47;100.00;99901.75;1449261;90;21356;-79
2022/09/26 00:18:32;;;;;;;15.53;7.70;;;;;;;12.44;100.00;99897.30;1428958;89;22325;-79
2022/09/26 00:21:08;;;;;;;14.97;9.07;;;;;;;12.39;100.00;99895.16;1442359;89;21386;-79
2022/09/26 00:23:34;;;;;;;17.80;9.10;;;;;;;12.40;100.00;99904.78;1444629;89;22340;-80
2022/09/26 00:26:00;;;;;;;11.60;8.30;;;;;;;12.43;100.00;99895.16;1444184;89;21893;-80
2022/09/26 00:28:29;;;;;;;14.73;8.50;;;;;;;12.45;100.00;99881.19;1446824;90;21423;-79
2022/09/26 00:30:55;;;;;;;9.77;8.23;;;;;;;12.45;100.00;99866.59;1442124;89;21437;-79
2022/09/26 00:33:23;;;;;;;8.30;7.40;;;;;;;12.42;100.00;99861.63;1457050;90;21355;-79
2022/09/26 00:35:52;;;;;;;11.97;7.77;;;;;;;12.44;100.00;99859.64;1454748;90;22214;-79
2022/09/26 00:38:19;;;;;;;11.63;7.90;;;;;;;12.48;100.00;99860.11;1443635;89;21525;-79
2022/09/26 00:40:46;;;;;;;9.83;8.63;;;;;;;12.51;100.00;99867.22;1443283;90;22383;-80
2022/09/26 00:43:41;;;;;;;11.40;8.47;;;;;;;12.56;100.00;99866.20;1454146;89;21443;-78
2022/09/26 00:46:30;;;;;;;8.97;7.90;;;;;;;12.58;100.00;99867.38;1455618;89;21481;-79
2022/09/26 00:49:14;;;;;;;12.77;8.87;;;;;;;12.56;100.00;99854.77;1445301;90;22047;-79
2022/09/26 00:51:45;;;;;;;13.63;8.27;;;;;;;12.53;100.00;99856.45;1451350;90;22435;-79
2022/09/26 00:54:15;;;;;;;17.03;8.00;;;;;;;12.50;100.00;99853.63;1440612;90;22407;-78
2022/09/26 00:56:44;;;;;;;10.82;8.20;;;;;;;12.49;100.00;99851.98;1446203;90;21578;-79
2022/09/26 00:59:24;;;;;;;11.57;7.90;;;;;;;12.50;100.00;99855.47;1429950;88;21419;-77
2022/09/26 01:01:53;;;;;;;10.28;7.55;;;;;;;12.49;100.00;99851.98;1449565;90;21363;-78
2022/09/26 01:04:21;;;;;;;9.63;7.97;;;;;;;12.51;100.00;99848.64;1443939;90;22376;-78
2022/09/26 01:06:48;;;;;;;9.00;7.80;;;;;;;12.53;100.00;99836.53;1452918;90;21282;-80
2022/09/26 01:09:15;;;;;;;9.47;8.27;;;;;;;12.54;100.00;99839.50;1451652;89;21445;-79
2022/09/26 01:11:42;;;;;;;8.13;7.33;;;;;;;12.52;100.00;99835.72;1451880;90;21327;-79
2022/09/26 01:14:12;;;;;;;14.53;8.73;;;;;;;12.52;100.00;99835.72;1449516;89;22457;-79
2022/09/26 01:16:41;;;;;;;11.23;7.63;;;;;;;12.53;100.00;99835.20;1448725;89;21996;-79
2022/09/26 01:19:22;;;;;;;9.87;7.50;;;;;;;12.52;100.00;99833.06;1460788;90;21385;-78
2022/09/26 01:22:15;;;;;;;12.03;7.75;;;;;;;12.54;100.00;99831.54;1455797;90;21415;-78
2022/09/26 01:25:12;;;;;;;10.00;7.10;;;;;;;12.54;100.00;99825.73;1443319;89;21555;-79
2022/09/26 01:27:56;;;;;;;11.53;7.67;;;;;;;12.58;100.00;99840.83;1444969;89;21289;-80
2022/09/26 01:30:26;;;;;;;10.67;8.93;;;;;;;12.58;100.00;99841.65;1443595;89;21363;-79
2022/09/26 01:33:28;;;;;;;15.77;8.63;;;;;;;12.55;100.00;99833.22;1441964;89;22501;-80
2022/09/26 01:36:26;;;;;;;9.00;7.77;;;;;;;12.52;100.00;99830.41;1420381;92;21458;-79
2022/09/26 01:39:32;;;;;;;15.33;8.03;;;;;;;12.49;100.00;99822.80;1419500;92;21465;-80
2022/09/26 01:42:16;;;;;;;10.47;8.10;;;;;;;12.46;100.00;99820.48;1419723;92;22478;-79
2022/09/26 01:44:57;;;;;;;9.53;7.50;;;;;;;12.45;100.00;99809.53;1381631;94;21650;-80
2022/09/26 01:47:34;;;;;;;14.95;8.35;;;;;;;12.48;100.00;99807.85;1363960;96;21452;-81
2022/09/26 01:50:22;;;;;;;9.73;7.27;;;;;;;12.53;100.00;99807.34;1401919;92;21517;-80
2022/09/26 01:52:59;;;;;;;13.57;8.23;;;;;;;12.56;100.00;99800.34;1424728;92;21444;-81
2022/09/26 01:55:36;;;;;;;16.10;9.00;;;;;;;12.58;100.00;99804.48;1418895;92;21398;-81
2022/09/26 01:58:08;;;;;;;9.40;7.30;;;;;;;12.58;100.00;99795.19;1411547;92;21399;-81
2022/09/26 02:00:37;;;;;;;11.13;7.53;;;;;;;12.55;100.00;99787.59;1407739;93;21473;-81
2022/09/26 02:03:07;;;;;;;11.37;7.80;;;;;;;12.51;100.00;99783.61;1419514;93;21443;-80
2022/09/26 02:05:41;;;;;;;9.10;7.20;;;;;;;12.52;100.00;99782.63;1400469;93;21599;-80
2022/09/26 02:08:23;;;;;;;9.20;7.17;;;;;;;12.54;100.00;99780.60;1450010;90;21423;-81
2022/09/26 02:11:11;;;;;;;8.80;7.40;;;;;;;12.58;100.00;99776.61;1449870;90;21445;-79
2022/09/26 02:13:55;;;;;;;10.80;8.20;;;;;;;12.58;100.00;99772.63;1447016;90;21444;-78
2022/09/26 02:16:51;;;;;;;8.17;7.33;;;;;;;12.59;100.00;99775.59;1449125;90;21370;-79
2022/09/26 02:19:38;;;;;;;8.60;7.07;;;;;;;12.58;100.00;99779.27;1445232;89;21335;-78
2022/09/26 02:22:04;;;;;;;13.27;8.10;;;;;;;12.55;100.00;99788.91;1449670;89;21496;-78
2022/09/26 02:24:31;;;;;;;14.67;7.93;;;;;;;12.49;100.00;99786.97;1444420;90;21311;-78
2022/09/26 02:26:57;;;;;;;9.10;7.07;;;;;;;12.50;100.00;99775.84;1445033;89;22339;-78
2022/09/26 02:29:23;;;;;;;9.13;7.27;;;;;;;12.50;100.00;99766.05;1456795;90;21438;-79
2022/09/26 02:32:04;;;;;;;9.07;7.10;;;;;;;12.50;100.00;99768.70;1445314;89;21481;-80
2022/09/26 02:34:30;;;;;;;;;;;;;;;12.53;100.00;99762.22;1452833;90;21357;-80
2022/09/26 02:36:59;;;;;;;8.47;6.93;;;;;;;12.57;100.00;99761.70;1453658;90;20277;-80
2022/09/26 02:39:26;;;;;;;10.07;7.93;;;;;;;12.61;100.00;99764.31;1451018;90;22236;-80
2022/09/26 02:42:21;;;;;;;10.77;8.07;;;;;;;12.64;100.00;99756.50;1472449;88;21348;-80
2022/09/26 02:45:16;;;;;;;13.77;8.83;;;;;;;12.66;100.00;99755.83;1450123;89;21566;-80
2022/09/26 02:48:28;;;;;;;14.07;8.03;;;;;;;12.65;100.00;99750.99;1447615;89;22311;-79
2022/09/26 02:51:23;;;;;;;8.80;7.20;;;;;;;12.63;100.00;99755.68;1448104;90;21480;-79
2022/09/26 02:54:18;;;;;;;12.77;7.93;;;;;;;12.62;100.00;99761.97;1453128;90;21659;-81
2022/09/26 02:57:39;;;;;;;10.67;7.93;;;;;;;12.59;100.00;99752.22;1450124;89;21437;-81
2022/09/26 03:00:23;;;;;;;10.32;7.05;;;;;;;12.59;100.00;99756.20;1444911;89;22362;-78
2022/09/26 03:03:06;;;;;;;8.97;7.40;;;;;;;12.56;100.00;99749.41;1445898;90;21529;-78
2022/09/26 03:05:36;;;;;;;15.63;8.27;;;;;;;12.55;100.00;99734.50;1441411;90;21385;-80
2022/09/26 03:08:16;;;;;;;11.20;8.53;;;;;;;12.55;100.00;99732.34;1445748;90;21422;-80
2022/09/26 03:10:45;;;;;;;10.98;8.45;;;;;;;12.54;100.00;99729.34;1452175;90;22280;-80
2022/09/26 03:13:15;;;;;;;14.27;8.13;;;;;;;12.53;100.00;99723.22;1442483;89;21461;-80
2022/09/26 03:15:46;;;;;;;13.15;7.65;;;;;;;12.53;100.00;99720.56;1455356;89;21364;-78
2022/09/26 03:18:18;;;;;;;9.53;8.13;;;;;;;12.55;100.00;99720.41;1447694;89;21568;-79
2022/09/26 03:20:45;;;;;;;12.43;6.97;;;;;;;12.56;100.00;99716.23;1446119;89;21438;-78
2022/09/26 03:23:12;;;;;;;13.13;7.40;;;;;;;12.57;100.00;99711.27;1452419;90;22339;-81
2022/09/26 03:25:39;;;;;;;12.70;8.27;;;;;;;12.59;100.00;99706.58;1447529;90;21387;-80
2022/09/26 03:28:05;;;;;;;9.57;8.30;;;;;;;12.58;100.00;99704.94;1453729;89;21549;-81
2022/09/26 03:30:33;;;;;;;12.53;8.03;;;;;;;12.56;100.00;99693.66;1449483;90;21297;-81
2022/09/26 03:33:01;;;;;;;12.23;7.70;;;;;;;12.55;100.00;99699.99;1448222;90;22185;-79
2022/09/26 03:35:27;;;;;;;11.53;7.87;;;;;;;12.54;100.00;99702.30;1457559;90;22351;-78
2022/09/26 03:37:53;;;;;;;13.00;6.67;;;;;;;12.54;100.00;99695.66;1448302;90;21452;-79
2022/09/26 03:40:19;;;;;;;10.73;6.93;;;;;;;12.53;100.00;99692.70;1449464;89;21305;-79
2022/09/26 03:42:46;;;;;;;8.43;7.30;;;;;;;12.51;100.00;99682.75;1452360;90;21326;-78
2022/09/26 03:45:12;;;;;;;11.07;7.20;;;;;;;12.53;100.00;99683.41;1458204;90;21378;-78
2022/09/26 03:47:40;;;;;;;16.83;7.57;;;;;;;12.56;100.00;99681.72;1445433;89;21378;-80
2022/09/26 03:50:08;;;;;;;11.13;7.93;;;;;;;12.57;100.00;99679.41;1446192;90;21305;-81
2022/09/26 03:52:35;;;;;;;8.73;7.70;;;;;;;12.56;100.00;99673.76;1461401;90;21371;-80
2022/09/26 03:55:01;;;;;;;13.00;6.97;;;;;;;12.56;100.00;99677.74;1448289;89;21312;-80
2022/09/26 03:57:27;;;;;;;11.73;7.60;;;;;;;12.54;100.00;99677.08;1451713;90;21355;-80
2022/09/26 03:59:54;;;;;;;8.67;6.93;;;;;;;12.57;100.00;99683.87;1447719;90;21370;-79
2022/09/26 04:02:21;;;;;;;10.13;8.23;;;;;;;12.59;100.00;99678.70;1447441;89;22230;-79
2022/09/26 04:04:47;;;;;;;11.00;7.73;;;;;;;12.62;100.00;99684.98;1450262;89;21452;-79
2022/09/26 04:07:13;;;;;;;13.00;7.70;;;;;;;12.63;100.00;99670.73;1464816;89;21342;-80
2022/09/26 04:09:39;;;;;;;8.10;7.27;;;;;;;12.64;100.00;99660.42;1449017;89;21452;-79
2022/09/26 04:12:06;;;;;;;9.47;8.27;;;;;;;12.64;100.00;99660.42;1444672;89;22510;-81
2022/09/26 04:14:32;;;;;;;11.97;6.67;;;;;;;12.64;100.00;99664.41;1438942;90;21443;-80
2022/09/26 04:16:58;;;;;;;10.20;7.30;;;;;;;12.63;100.00;99668.08;1441839;90;21391;-81
2022/09/26 04:19:25;;;;;;;9.67;6.73;;;;;;;12.65;100.00;99664.72;1434338;91;21383;-81
2022/09/26 04:21:51;;;;;;;10.77;7.30;;;;;;;12.68;100.00;99667.52;1437501;91;22381;-81
2022/09/26 04:24:18;;;;;;;7.93;6.57;;;;;;;12.70;100.00;99656.73;1447212;90;21370;-82
2022/09/26 04:26:44;;;;;;;11.53;7.53;;;;;;;12.69;100.00;99664.35;1448984;90;21356;-80
2022/09/26 04:29:10;;;;;;;11.27;7.30;;;;;;;12.66;100.00;99657.60;1447480;90;21393;-81
2022/09/26 04:31:36;;;;;;;13.73;8.70;;;;;;;12.64;100.00;99667.56;1449818;89;21289;-81
2022/09/26 04:34:04;;;;;;;10.40;7.57;;;;;;;12.61;100.00;99662.11;1442525;89;21429;-83
2022/09/26 04:36:31;;;;;;;11.37;7.20;;;;;;;12.58;100.00;99662.47;1461441;89;21333;-83
2022/09/26 04:38:59;;;;;;;16.77;7.87;;;;;;;12.52;100.00;99673.80;1448962;89;21393;-83
2022/09/26 04:41:28;;;;;;;10.67;7.63;;;;;;;12.48;100.00;99668.52;1440231;89;21436;-83
2022/09/26 04:43:56;;;;;;;8.57;6.83;;;;;;;12.45;100.00;99671.52;1448443;89;21415;-83
2022/09/26 04:46:26;;;;;;;13.43;7.37;;;;;;;12.41;100.00;99677.70;1480177;87;21341;-84
2022/09/26 04:48:55;;;;;;;13.78;7.78;;;;;;;12.40;100.00;99680.04;1452581;88;21445;-84
2022/09/26 04:51:24;;;;;;;12.83;7.33;;;;;;;12.40;100.00;99681.87;1462049;89;22199;-83
2022/09/26 04:53:51;;;;;;;11.37;7.27;;;;;;;12.39;100.00;99684.19;1454559;89;22243;-82
2022/09/26 04:56:20;;;;;;;9.67;7.33;;;;;;;12.41;100.00;99684.84;1451842;89;21318;-82
2022/09/26 04:58:46;;;;;;;11.80;7.90;;;;;;;12.45;100.00;99675.51;1449909;89;22235;-82
2022/09/26 05:01:16;;;;;;;10.57;8.33;;;;;;;12.48;100.00;99673.82;1457357;89;21488;-83
2022/09/26 05:03:43;;;;;;;11.03;8.37;;;;;;;12.51;100.00;99660.19;1456114;89;22339;-83
2022/09/26 05:06:10;;;;;;;10.70;7.90;;;;;;;12.55;100.00;99671.30;1455232;89;21355;-84
2022/09/26 05:08:45;;;;;;;11.33;7.47;;;;;;;12.58;100.00;99665.13;1455377;89;21378;-84
2022/09/26 05:11:10;;;;;;;10.30;6.47;;;;;;;12.61;100.00;99658.64;1404924;91;21561;-84
2022/09/26 05:13:37;;;;;;;10.53;7.73;;;;;;;12.64;100.00;99652.97;1463772;89;21422;-83
2022/09/26 05:16:07;;;;;;;10.60;8.03;;;;;;;12.63;100.00;99650.00;1438856;89;21358;-83
2022/09/26 05:18:34;;;;;;;8.87;7.80;;;;;;;12.64;100.00;99655.63;1458029;89;21334;-84
2022/09/26 05:21:02;;;;;;;11.23;8.00;;;;;;;12.61;100.00;99652.81;1452008;89;21327;-83
2022/09/26 05:26:48;;;;;;;15.57;7.50;;;;;;;12.61;100.00;99662.62;1456206;89;21422;-82
2022/09/26 05:29:15;;;;;;;;;;;;;;;12.59;100.00;99666.77;1457909;89;21908;-81
2022/09/26 05:31:42;;;;;;;9.63;7.17;;;;;;;12.58;100.00;99678.40;1453388;89;20337;-82
2022/09/26 05:34:14;;;;;;;10.80;8.37;;;;;;;12.59;100.00;99686.67;1455399;89;22246;-82
2022/09/26 05:36:41;;;;;;;15.10;8.33;;;;;;;12.52;100.00;99685.75;1443521;89;21377;-80
2022/09/26 05:40:55;;;;;;;11.77;8.57;;;;;;;12.44;100.00;99691.12;1464062;89;21531;-81
2022/09/26 05:41:36;;;;;;;11.63;8.93;;;;;;;12.40;100.00;99691.16;1460353;88;21516;-82
2022/09/26 05:44:02;;;;;;;16.37;9.97;;;;;;;12.44;100.00;99697.75;1455597;88;21412;-82
2022/09/26 05:46:30;;;;;;;11.03;9.20;;;;;;;12.48;100.00;99696.37;1471429;89;21367;-83
2022/09/26 05:48:56;;;;;;;12.00;9.10;;;;;;;12.55;100.00;99696.52;1465790;89;21612;-83
2022/09/26 05:51:23;;;;;;;10.23;8.30;;;;;;;12.61;100.00;99693.14;1469888;89;21360;-83
2022/09/26 05:53:49;;;;;;;12.93;8.47;;;;;;;12.67;100.00;99682.31;1465290;89;21406;-83
2022/09/26 05:56:18;;;;;;;9.13;7.13;;;;;;;12.68;100.00;99677.31;1474062;89;21404;-83
2022/09/26 05:58:53;;;;;;;18.57;8.47;;;;;;;12.70;100.00;99675.31;1439186;89;21383;-83
2022/09/26 06:01:20;;;;;;;11.40;8.63;;;;;;;12.71;100.00;99671.14;1431512;90;21986;-83
2022/09/26 06:03:47;;;;;;;10.10;8.73;;;;;;;12.69;100.00;99658.56;1427435;91;21607;-83
2022/09/26 06:06:17;;;;;;;11.23;8.57;;;;;;;12.70;100.00;99659.39;1434409;91;21414;-83
2022/09/26 06:08:45;;;;;;;14.00;8.35;;;;;;;12.69;100.00;99663.02;1439488;90;21459;-83
2022/09/26 06:11:28;;;;;;;8.10;7.00;;;;;;;12.70;100.00;99654.08;1434088;91;22279;-83
2022/09/26 06:13:59;;;;;;;9.50;7.47;;;;;;;12.68;100.00;99650.77;1432214;91;22264;-82
2022/09/26 06:16:25;;;;;;;13.90;7.10;;;;;;;12.71;100.00;99641.11;1460168;89;21354;-82
2022/09/26 06:18:53;;;;;;;9.97;8.07;;;;;;;12.67;100.00;99632.69;1456493;89;22270;-83
2022/09/26 06:21:20;;;;;;;11.67;7.47;;;;;;;12.62;100.00;99618.63;1454408;89;22337;-83
2022/09/26 06:23:47;;;;;;;10.87;7.43;;;;;;;12.60;100.00;99628.62;1458562;88;21390;-81
2022/09/26 06:26:21;;;;;;;10.77;7.13;;;;;;;12.58;100.00;99618.67;1442512;88;22515;-82
2022/09/26 06:28:48;;;;;;;7.87;6.57;;;;;;;12.60;100.00;99621.98;1456356;88;21384;-82
2022/09/26 06:31:17;;;;;;;7.93;6.70;;;;;;;12.60;100.00;99625.97;1461784;88;21450;-83
2022/09/26 06:33:52;;;;;;;9.07;7.60;;;;;;;12.64;100.00;99629.89;1456492;88;21426;-83
2022/09/26 06:36:18;;;;;;;12.00;7.60;;;;;;;12.70;100.00;99623.55;1452047;89;21538;-84
2022/09/26 06:38:44;;;;;;;9.57;7.50;;;;;;;12.74;100.00;99618.19;1465167;88;21398;-82
2022/09/26 06:41:13;;;;;;;8.10;6.57;;;;;;;12.78;100.00;99615.00;1453994;88;22359;-83
2022/09/26 06:43:38;;;;;;;9.47;7.53;;;;;;;12.81;100.00;99612.48;1453058;89;22548;-81
2022/09/26 06:46:11;;;;;;;9.97;7.20;;;;;;;12.85;100.00;99614.58;1460485;88;21418;-81
2022/09/26 06:48:35;;;;;;;10.40;8.03;;;;;;;12.88;100.00;99616.05;1449677;88;21361;-83
2022/09/26 06:51:01;;;;;;;8.57;6.67;;;;;;;12.90;100.00;99617.20;1449724;88;21397;-86
2022/09/26 06:53:28;;;;;;;9.97;6.60;;;;;;;12.93;100.00;99616.84;1465921;88;21531;-87
2022/09/26 06:55:54;;;;;;;7.90;6.90;;;;;;;12.93;100.00;99617.66;1441200;88;21413;-84
2022/09/26 06:58:20;;;;;;;14.10;7.00;;;;;;;12.97;100.00;99623.42;1451778;88;21509;-86
2022/09/26 07:00:47;;;;;;;10.93;8.20;;;;;;;13.01;100.00;99626.87;1440204;89;21710;-87
2022/09/26 07:03:14;;;;;;;10.80;7.40;;;;;;;13.06;100.00;99625.83;1456811;88;21280;-87
2022/09/26 07:05:41;;;;;;;10.67;6.63;;;;;;;13.10;100.00;99622.29;1446366;89;21354;-88
2022/09/26 07:08:07;;;;;;;8.43;7.27;;;;;;;13.08;100.00;99625.63;1457797;88;21404;-86
2022/09/26 07:10:34;;;;;;;7.80;7.00;;;;;;;13.08;100.00;99617.14;1458083;88;22196;-87
2022/09/26 07:13:03;;;;;;;14.80;7.63;;;;;;;13.09;100.00;99620.14;1432443;89;21369;-87
2022/09/26 07:15:32;;;;;;;8.57;6.37;;;;;;;13.12;100.00;99611.47;1380004;90;21460;-85
2022/09/26 07:18:01;;;;;;;24.83;7.60;;;;;;;13.14;100.00;99610.78;1368203;89;21324;-85
2022/09/26 07:20:31;;;;;;;11.57;7.73;;;;;;;13.17;100.00;99611.74;1536747;87;21183;-79
2022/09/26 07:23:01;;;;;;;;;;;;;;;13.18;100.00;99616.89;1562238;87;21138;-81
2022/09/26 07:25:30;;;;;;;8.07;6.53;;;;;;;13.21;100.00;99609.88;1436645;89;20314;-81
2022/09/26 07:27:57;;;;;;;7.37;6.53;;;;;;;13.23;100.00;99599.05;1465710;87;21570;-80
2022/09/26 07:30:24;;;;;;;12.33;7.57;;;;;;;13.22;100.00;99596.08;1452204;87;21538;-80
2022/09/26 07:32:50;;;;;;;12.13;7.60;;;;;;;13.22;100.00;99597.41;1380998;88;21435;-78
2022/09/26 07:35:16;;;;;;;10.97;8.03;;;;;;;13.20;100.00;99602.89;1390228;89;21294;-79
2022/09/26 07:37:43;;;;;;;8.47;7.40;;;;;;;13.21;100.00;99611.72;1382222;90;21279;-79
2022/09/26 07:40:10;;;;;;;9.30;6.27;;;;;;;13.22;100.00;99608.04;1385796;90;22183;-79
2022/09/26 07:42:40;;;;;;;8.97;7.27;;;;;;;13.24;100.00;99606.03;1377230;90;21243;-80
2022/09/26 07:45:07;;;;;;;8.48;6.87;;;;;;;13.23;100.00;99601.70;1522640;87;22153;-87
2022/09/26 07:50:19;;;;;;;12.17;7.27;;;;;;;13.25;100.00;99597.03;1453849;88;21406;-86
2022/09/26 07:52:48;;;;;;;10.00;7.40;;;;;;;13.21;100.00;99597.92;1454706;88;21832;-87
2022/09/26 07:55:21;;;;;;;12.90;7.70;;;;;;;13.19;100.00;99585.83;1469790;88;21443;-88
2022/09/26 07:57:48;;;;;;;12.47;8.17;;;;;;;13.16;100.00;99575.57;1448322;88;21512;-88
2022/09/26 08:00:18;;;;;;;12.53;9.20;;;;;;;13.12;100.00;99557.00;1450531;88;21490;-87
2022/09/26 08:02:50;;;;;;;11.93;8.70;;;;;;;13.09;100.00;99540.45;1379564;89;21434;-88
2022/09/26 08:05:18;;;;;;;11.17;8.37;;;;;;;13.05;100.00;99527.71;1376900;91;21428;-90
2022/09/26 08:07:45;;;;;;;13.00;7.83;;;;;;;12.97;100.00;99537.10;1534611;88;22158;-87
2022/09/26 08:10:22;;;;;;;10.63;7.37;;;;;;;12.97;100.00;99535.27;1365715;89;21214;-88
2022/09/26 08:12:49;;;;;;;10.03;8.00;;;;;;;13.01;100.00;99521.13;1544639;88;21391;-88
2022/09/26 08:15:15;;;;;;;11.70;7.27;;;;;;;13.02;100.00;99495.70;1410955;88;21433;-90
2022/09/26 08:17:45;;;;;;;9.20;7.97;;;;;;;13.06;100.00;99485.52;1403950;88;22365;-87
2022/09/26 08:20:11;;;;;;;17.43;9.10;;;;;;;13.16;100.00;99497.20;1376035;89;21250;-87
2022/09/26 08:22:37;;;;;;;12.43;8.60;;;;;;;13.29;100.00;99507.98;1400267;89;21398;-89
2022/09/26 08:25:06;;;;;;;17.87;7.87;;;;;;;13.41;100.00;99517.14;1453016;89;21383;-86
2022/09/26 08:27:33;;;;;;;11.43;8.67;;;;;;;13.52;100.00;99535.25;1450834;88;21574;-89
2022/09/26 08:30:03;;;;;;;9.63;8.27;;;;;;;13.61;100.00;99567.01;1474536;88;21368;-89
2022/09/26 08:32:31;;;;;;;24.27;16.37;;;;;;;13.59;100.00;99574.37;1462912;88;21470;-91
2022/09/26 08:34:57;;;;;;;18.20;12.77;;;;;;;13.58;100.00;99588.66;1471669;88;21330;-92
2022/09/26 08:37:28;;;;;;;12.97;11.63;;;;;;;13.54;100.00;99599.66;1486917;88;21358;-89
2022/09/26 08:39:54;;;;;;;10.85;9.08;;;;;;;13.50;100.00;99605.05;1458431;89;21551;-90
2022/09/26 08:42:56;;;;;;;10.53;9.30;;;;;;;13.48;100.00;99592.44;1448695;89;21442;-90
2022/09/26 08:49:12;;;;;;;11.27;8.97;;;;;;;13.52;100.00;99581.77;1452013;89;22388;-90
2022/09/26 08:51:41;;;;;;;11.07;8.27;;;;;;;13.60;100.00;99570.69;1459276;89;21478;-87
2022/09/26 08:54:21;;;;;;;10.63;8.50;;;;;;;13.70;100.00;99552.61;1454486;89;22233;-90
2022/09/26 08:56:52;;;;;;;10.13;9.05;;;;;;;13.82;100.00;99535.13;1460677;89;21581;-90
2022/09/26 08:59:30;;;;;;;12.33;10.07;;;;;;;13.97;100.00;99529.22;1451157;89;21251;-84
2022/09/26 09:02:03;;;;;;;13.43;9.63;;;;;;;14.15;100.00;99546.05;1483187;87;22386;-83
2022/09/26 09:04:50;;;;;;;12.07;9.83;;;;;;;14.29;100.00;99552.30;1453360;89;21670;-83
2022/09/26 09:07:23;;;;;;;13.80;9.60;;;;;;;14.39;100.00;99543.48;1445132;89;21597;-82
2022/09/26 09:09:56;;;;;;;11.20;9.60;;;;;;;14.56;100.00;99544.05;1454892;89;21486;-82
2022/09/26 09:12:31;;;;;;;12.63;9.67;;;;;;;14.66;100.00;99554.34;1460173;88;21669;-82
2022/09/26 09:15:41;;;;;;;10.73;9.13;;;;;;;14.73;100.00;99555.70;1456760;89;22453;-85
2022/09/26 09:18:37;;;;;;;11.57;9.93;;;;;;;14.80;100.00;99560.58;1457898;89;21492;-84
2022/09/26 09:21:43;;;;;;;13.67;10.70;;;;;;;14.82;100.00;99560.70;1450310;89;21456;-85
2022/09/26 09:24:29;;;;;;;12.63;9.73;;;;;;;14.84;100.00;99543.17;1472884;88;21654;-85
2022/09/26 09:27:33;;;;;;;8.80;7.90;;;;;;;14.84;100.00;99541.84;1455768;89;21589;-84
2022/09/26 09:30:17;;;;;;;11.87;9.47;;;;;;;14.84;100.00;99539.17;1476612;88;21425;-84
2022/09/26 09:32:56;;;;;;;9.73;7.60;;;;;;;14.75;100.00;99545.17;1471846;88;21496;-84
2022/09/26 09:35:43;;;;;;;8.00;6.87;;;;;;;14.70;100.00;99542.27;1453539;89;21389;-84
2022/09/26 09:38:15;;;;;;;9.83;7.60;;;;;;;14.66;100.00;99545.02;1461411;89;21545;-84
2022/09/26 09:41:02;;;;;;;10.77;7.40;;;;;;;14.64;100.00;99551.04;1460645;88;21412;-85
2022/09/26 09:43:48;;;;;;;18.30;8.43;;;;;;;14.64;100.00;99551.04;1455609;88;21563;-84
2022/09/26 09:46:28;;;;;;;9.27;8.37;;;;;;;14.67;100.00;99543.98;1446574;89;21449;-85
2022/09/26 09:49:24;;;;;;;13.70;8.63;;;;;;;14.70;100.00;99540.94;1454040;89;21396;-85
2022/09/26 09:52:11;;;;;;;11.90;9.03;;;;;;;14.76;100.00;99540.17;1451816;89;21383;-84
2022/09/26 09:55:01;;;;;;;10.07;9.07;;;;;;;14.82;100.00;99544.72;1472768;88;22990;-84
2022/09/26 09:57:57;;;;;;;9.18;8.08;;;;;;;14.87;100.00;99548.95;1444708;89;21821;-83
2022/09/26 10:00:26;;;;;;;10.03;8.80;;;;;;;14.99;100.00;99543.03;1427856;91;21542;-83
2022/09/26 10:03:17;;;;;;;10.70;7.33;;;;;;;15.11;100.00;99544.14;1430520;91;22270;-83
2022/09/26 10:05:49;;;;;;;8.13;7.17;;;;;;;15.17;100.00;99549.19;1423623;91;22477;-83
2022/09/26 10:08:21;;;;;;;12.70;8.27;;;;;;;15.21;100.00;99553.91;1430903;91;21398;-84
2022/09/26 10:11:13;;;;;;;9.43;7.73;;;;;;;15.25;100.00;99562.34;1430169;91;21383;-84
2022/09/26 10:13:42;;;;;;;11.23;8.07;;;;;;;15.27;100.00;99562.44;1429608;91;21287;-83
2022/09/26 10:16:13;;;;;;;12.60;7.57;;;;;;;15.39;100.00;99565.86;1430665;91;21450;-84
2022/09/26 10:19:07;;;;;;;8.77;7.87;;;;;;;15.50;100.00;99567.95;1433214;91;21434;-83
2022/09/26 10:21:39;;;;;;;12.63;9.27;;;;;;;15.60;100.00;99560.41;1408474;91;21501;-83
2022/09/26 10:24:21;;;;;;;9.43;8.13;;;;;;;15.58;100.00;99561.11;1427660;91;21427;-83
2022/09/26 10:26:49;;;;;;;10.47;8.90;;;;;;;15.56;100.00;99554.66;1420741;91;21568;-83
2022/09/26 10:29:26;;;;;;;12.83;9.27;;;;;;;15.54;100.00;99555.88;1432098;91;21428;-84
2022/09/26 10:31:59;;;;;;;9.70;8.20;;;;;;;15.43;100.00;99563.94;1437241;91;21636;-84
2022/09/26 10:34:32;;;;;;;11.10;9.57;;;;;;;15.39;100.00;99552.53;1433479;91;21516;-85
2022/09/26 10:37:23;;;;;;;10.27;8.27;;;;;;;15.44;100.00;99562.09;1431171;91;21338;-84
2022/09/26 10:42:39;;;;;;;10.07;8.70;;;;;;;15.58;100.00;99554.44;1453444;90;21511;-84
2022/09/26 10:45:25;;;;;;;11.27;9.67;;;;;;;15.55;100.00;99546.84;1448624;90;21959;-84
2022/09/26 10:47:50;;;;;;;10.00;9.00;;;;;;;15.53;100.00;99531.55;1459781;89;21541;-84
2022/09/26 10:50:23;;;;;;;19.10;11.23;;;;;;;15.48;100.00;99532.17;1460682;89;21404;-84
2022/09/26 10:53:07;;;;;;;12.63;11.33;;;;;;;15.43;100.00;99521.80;1464034;89;21485;-84
2022/09/26 10:55:43;;;;;;;10.60;9.50;;;;;;;15.47;100.00;99520.36;1430916;91;21626;-85
2022/09/26 10:58:28;;;;;;;10.27;9.17;;;;;;;15.53;100.00;99519.55;1383110;92;21597;-84
2022/09/26 11:00:50;;;;;;;12.47;10.37;;;;;;;15.58;100.00;99509.92;1459225;89;22541;-84
2022/09/26 11:03:34;;;;;;;11.13;9.40;;;;;;;15.70;100.00;99515.51;1447684;89;21395;-85
2022/09/26 11:06:00;;;;;;;10.17;8.63;;;;;;;15.85;100.00;99511.31;1457819;89;21449;-83
2022/09/26 11:08:30;;;;;;;11.37;10.23;;;;;;;16.02;100.00;99515.73;1443717;89;21345;-85
2022/09/26 11:11:02;;;;;;;12.13;9.75;;;;;;;16.10;100.00;99520.87;1430760;91;21443;-84
2022/09/26 11:13:49;;;;;;;12.17;10.87;;;;;;;16.11;100.00;99527.87;1442174;89;21360;-84
2022/09/26 11:16:18;;;;;;;12.83;10.10;;;;;;;16.13;100.00;99520.46;1431974;89;21398;-84
2022/09/26 11:19:08;;;;;;;14.37;10.53;;;;;;;16.26;100.00;99525.52;1452838;89;21515;-83
2022/09/26 11:22:03;;;;;;;11.83;10.63;;;;;;;16.38;100.00;99517.17;1456330;89;21367;-84
2022/09/26 11:24:41;;;;;;;14.73;9.93;;;;;;;16.39;99.32;99516.95;1423416;91;21652;-84
2022/09/26 11:27:30;;;;;;;14.33;11.47;;;;;;;16.41;98.64;99516.23;1456141;89;21448;-83
2022/09/26 11:30:10;;;;;;;12.43;11.23;;;;;;;16.33;97.15;99518.30;1446744;89;21499;-85
2022/09/26 11:32:42;;;;;;;14.50;13.00;;;;;;;16.28;97.47;99518.09;1424640;90;22287;-83
2022/09/26 11:35:28;;;;;;;13.20;11.90;;;;;;;16.16;96.35;99520.05;1411608;92;21584;-85
2022/09/26 11:38:09;;;;;;;12.90;11.60;;;;;;;16.10;97.10;99520.87;1424698;89;21596;-84
2022/09/26 11:40:56;;;;;;;12.23;11.03;;;;;;;16.07;97.44;99514.62;1461154;89;22005;-86
2022/09/26 11:43:46;;;;;;;12.23;11.03;;;;;;;16.09;97.89;99516.58;1445128;89;21603;-86
2022/09/26 11:46:30;;;;;;;13.15;11.00;;;;;;;16.05;97.48;99518.52;1426433;91;22014;-84
2022/09/26 11:49:34;;;;;;;14.20;12.67;;;;;;;16.01;97.35;99517.59;1450835;89;21383;-86
2022/09/26 11:52:44;;;;;;;14.40;12.07;;;;;;;15.98;97.85;99527.34;1423523;91;21375;-85
2022/09/26 11:55:38;;;;;;;15.40;13.75;;;;;;;15.95;98.18;99529.09;1423312;91;21377;-85
2022/09/26 11:58:37;;;;;;;15.03;13.53;;;;;;;15.94;98.58;99519.45;1433688;91;21397;-85
2022/09/26 12:01:22;;;;;;;15.33;13.73;;;;;;;15.84;98.47;99516.87;1455934;89;21590;-85
2022/09/26 12:04:05;;;;;;;19.07;14.00;;;;;;;15.78;98.70;99510.50;1457899;89;21383;-86